createdAt,value
2023-05-03T00:01:44.307Z,99064.81
2023-05-03T00:04:11.749Z,99062.88
2023-05-03T00:06:53.793Z,99050.22
2023-05-03T00:09:43.048Z,99062.69
2023-05-03T00:12:29.694Z,99064.09
2023-05-03T00:15:18.535Z,99067.97
2023-05-03T00:17:46.259Z,99054.91
2023-05-03T00:20:13.365Z,99061.88
2023-05-03T00:22:40.405Z,99049.03
2023-05-03T00:25:09.922Z,99045.38
2023-05-03T00:27:37.216Z,99056.28
2023-05-03T00:30:05.184Z,99058.59
2023-05-03T00:32:32.455Z,99053.19
2023-05-03T00:34:59.432Z,99050.88
2023-05-03T00:37:27.229Z,99054.16
2023-05-03T00:39:54.221Z,99053.72
2023-05-03T00:42:21.159Z,99057.25
2023-05-03T00:44:48.059Z,99049.72
2023-05-03T00:47:16.615Z,99049.16
2023-05-03T00:49:44.869Z,99053.72
2023-05-03T00:52:12.139Z,99044.75
2023-05-03T00:54:39.845Z,99053.50
2023-05-03T00:57:07.065Z,99054.16
2023-05-03T00:59:34.672Z,99054.16
2023-05-03T01:02:02.141Z,99041.22
2023-05-03T01:04:29.960Z,99053.72
2023-05-03T01:07:18.017Z,99061.56
2023-05-03T01:10:21.475Z,99056.28
2023-05-03T01:13:29.631Z,99063.53
2023-05-03T01:16:49.001Z,99060.28
2023-05-03T01:19:52.223Z,99066.13
2023-05-03T01:22:41.844Z,99058.28
2023-05-03T01:25:11.218Z,99053.72
2023-05-03T01:27:38.964Z,99056.59
2023-05-03T01:30:07.762Z,99054.91
2023-05-03T01:33:12.015Z,99060.06
2023-05-03T01:36:09.505Z,99063.34
2023-05-03T01:38:38.180Z,99065.22
2023-05-03T01:41:10.778Z,99061.47
2023-05-03T01:43:39.188Z,99035.13
2023-05-03T01:46:06.133Z,99023.31
2023-05-03T01:48:33.222Z,99062.13
2023-05-03T01:51:00.528Z,99057.56
2023-05-03T01:53:27.518Z,99067.16
2023-05-03T01:55:54.478Z,99068.84
2023-05-03T01:58:21.370Z,99073.59
2023-05-03T02:00:49.015Z,99036.34
2023-05-03T02:03:16.027Z,99071.38
2023-05-03T02:05:42.941Z,99068.50
2023-05-03T02:08:09.866Z,99070.81
2023-05-03T02:10:36.845Z,99065.97
2023-05-03T02:13:03.979Z,99061.59
2023-05-03T02:15:32.239Z,99065.59
2023-05-03T02:18:02.602Z,99069.78
2023-05-03T02:20:32.729Z,99055.78
2023-05-03T02:22:59.789Z,99074.25
2023-05-03T02:25:27.707Z,99050.50
2023-05-03T02:27:54.760Z,99065.72
2023-05-03T02:30:22.061Z,99066.22
2023-05-03T02:32:49.009Z,99068.09
2023-05-03T02:35:16.010Z,99059.56
2023-05-03T02:37:42.945Z,99068.34
2023-05-03T02:40:10.167Z,99070.84
2023-05-03T02:42:37.199Z,99070.00
2023-05-03T02:45:04.792Z,99062.94
2023-05-03T02:47:31.871Z,99065.88
2023-05-03T02:49:58.805Z,99071.69
2023-05-03T02:52:25.803Z,99067.59
2023-05-03T02:54:52.704Z,99070.56
2023-05-03T02:57:19.625Z,99077.03
2023-05-03T02:59:46.501Z,99073.59
2023-05-03T03:02:13.516Z,99078.25
2023-05-03T03:04:40.394Z,99080.75
2023-05-03T03:07:07.336Z,99082.81
2023-05-03T03:09:34.276Z,99069.84
2023-05-03T03:12:03.706Z,99081.59
2023-05-03T03:14:30.903Z,99079.53
2023-05-03T03:16:58.579Z,99071.34
2023-05-03T03:19:25.609Z,99044.34
2023-05-03T03:21:52.659Z,99084.19
2023-05-03T03:24:19.549Z,99078.13
2023-05-03T03:26:46.478Z,99084.59
2023-05-03T03:29:13.385Z,99081.88
2023-05-03T03:31:40.481Z,99082.50
2023-05-03T03:34:07.460Z,99086.91
2023-05-03T03:36:34.376Z,99080.47
2023-05-03T03:39:01.314Z,99089.81
2023-05-03T03:41:28.258Z,99091.50
2023-05-03T03:43:55.171Z,99096.06
2023-05-03T03:46:22.223Z,99091.03
2023-05-03T03:48:49.214Z,99086.22
2023-05-03T03:51:16.357Z,99097.88
2023-05-03T03:53:43.496Z,99099.09
2023-05-03T03:56:10.481Z,99089.75
2023-05-03T03:58:37.460Z,99100.88
2023-05-03T04:01:04.758Z,99104.50
2023-05-03T04:03:31.747Z,99109.00
2023-05-03T04:05:58.680Z,99102.81
2023-05-03T04:08:25.659Z,99101.63
2023-05-03T04:10:52.598Z,99073.91
2023-05-03T04:13:19.613Z,99104.88
2023-05-03T04:15:46.533Z,99111.78
2023-05-03T04:18:13.580Z,99109.16
2023-05-03T04:20:40.665Z,99122.13
2023-05-03T04:23:07.740Z,99115.59
2023-05-03T04:25:37.290Z,99104.38
2023-05-03T04:28:04.637Z,99119.50
2023-05-03T04:30:32.137Z,99123.22
2023-05-03T04:33:00.250Z,99122.84
2023-05-03T04:35:27.207Z,99124.81
2023-05-03T04:37:54.130Z,99125.94
2023-05-03T04:40:21.111Z,99120.81
2023-05-03T04:42:48.552Z,99120.44
2023-05-03T04:45:15.506Z,99133.22
2023-05-03T04:47:42.489Z,99132.84
2023-05-03T04:50:11.450Z,99133.13
2023-05-03T04:52:38.502Z,99119.97
2023-05-03T04:55:05.827Z,98978.22
2023-05-03T04:57:34.133Z,99140.28
2023-05-03T05:00:01.787Z,99139.44
2023-05-03T05:02:29.318Z,99138.53
2023-05-03T05:04:56.300Z,99144.84
2023-05-03T05:07:23.296Z,99151.03
2023-05-03T05:09:50.164Z,99145.44
2023-05-03T05:12:17.190Z,99156.78
2023-05-03T05:14:44.439Z,99159.31
2023-05-03T05:17:11.568Z,99158.06
2023-05-03T05:19:38.555Z,99161.72
2023-05-03T05:22:05.803Z,99155.47
2023-05-03T05:24:32.760Z,99160.44
2023-05-03T05:26:59.677Z,99170.88
2023-05-03T05:29:26.598Z,99175.25
2023-05-03T05:31:53.611Z,99176.66
2023-05-03T05:34:20.653Z,99172.16
2023-05-03T05:36:47.650Z,99179.53
2023-05-03T05:39:14.543Z,99184.28
2023-05-03T05:41:41.452Z,99183.81
2023-05-03T05:44:08.339Z,99181.97
2023-05-03T05:46:35.282Z,99193.78
2023-05-03T05:49:02.233Z,99187.81
2023-05-03T05:51:30.768Z,99196.94
2023-05-03T05:53:58.088Z,99192.09
2023-05-03T05:56:25.197Z,99203.47
2023-05-03T05:58:52.152Z,99210.06
2023-05-03T06:01:19.066Z,99212.09
2023-05-03T06:03:45.983Z,99209.38
2023-05-03T06:06:12.954Z,99219.44
2023-05-03T06:08:39.886Z,99218.59
2023-05-03T06:11:06.913Z,99219.81
2023-05-03T06:13:38.788Z,99184.72
2023-05-03T06:16:06.300Z,99221.28
2023-05-03T06:18:33.261Z,99227.78
2023-05-03T06:21:00.234Z,99223.47
2023-05-03T06:23:28.343Z,99230.19
2023-05-03T06:25:55.350Z,99233.66
2023-05-03T06:28:22.233Z,99235.50
2023-05-03T06:30:50.836Z,99089.53
2023-05-03T06:33:17.934Z,99246.19
2023-05-03T06:35:47.327Z,99234.31
2023-05-03T06:38:14.463Z,99234.31
2023-05-03T06:40:44.068Z,99240.03
2023-05-03T06:43:10.929Z,99248.97
2023-05-03T06:45:39.361Z,99235.53
2023-05-03T06:48:07.053Z,99237.91
2023-05-03T06:50:34.053Z,99249.44
2023-05-03T06:53:01.006Z,99162.31
2023-05-03T06:55:28.224Z,99241.34
2023-05-03T06:57:55.222Z,99255.06
2023-05-03T07:00:23.307Z,99254.25
2023-05-03T07:02:50.383Z,99254.53
2023-05-03T07:05:17.423Z,99248.47
2023-05-03T07:07:44.726Z,99251.16
2023-05-03T07:10:11.839Z,99258.34
2023-05-03T07:12:38.704Z,99250.22
2023-05-03T07:15:05.993Z,99240.06
2023-05-03T07:17:32.974Z,99246.13
2023-05-03T07:19:59.920Z,99249.00
2023-05-03T07:22:27.684Z,99259.09
2023-05-03T07:24:59.956Z,99267.59
2023-05-03T07:27:27.364Z,99265.69
2023-05-03T07:29:54.969Z,99266.06
2023-05-03T07:32:22.684Z,99272.91
2023-05-03T07:34:49.759Z,99264.94
2023-05-03T07:37:17.000Z,99264.94
2023-05-03T07:39:43.949Z,99266.75
2023-05-03T07:42:10.807Z,99267.75
2023-05-03T07:44:37.836Z,99263.19
2023-05-03T07:47:04.766Z,99277.06
2023-05-03T07:49:35.762Z,99274.75
2023-05-03T07:52:03.243Z,99274.66
2023-05-03T07:54:30.212Z,99275.16
2023-05-03T07:56:57.182Z,99279.88
2023-05-03T07:59:24.050Z,99276.88
2023-05-03T08:01:51.353Z,99277.22
2023-05-03T08:04:18.496Z,99277.78
2023-05-03T08:06:45.851Z,99269.53
2023-05-03T08:09:12.818Z,99275.84
2023-05-03T08:11:41.660Z,99271.25
2023-05-03T08:14:10.215Z,99268.69
2023-05-03T08:16:37.228Z,99271.91
2023-05-03T08:19:05.104Z,99279.78
2023-05-03T08:21:33.720Z,99278.41
2023-05-03T08:24:01.130Z,99275.34
2023-05-03T08:26:30.054Z,99275.91
2023-05-03T08:28:57.084Z,99267.13
2023-05-03T08:31:24.001Z,99278.56
2023-05-03T08:33:51.104Z,99170.56
2023-05-03T08:36:18.023Z,99277.69
2023-05-03T08:38:45.160Z,99288.25
2023-05-03T08:41:39.789Z,99282.88
2023-05-03T08:44:08.660Z,99284.97
2023-05-03T08:46:37.507Z,99288.56
2023-05-03T08:49:07.133Z,99287.19
2023-05-03T08:51:35.100Z,99293.25
2023-05-03T08:54:02.054Z,99293.25
2023-05-03T08:56:32.678Z,99296.84
2023-05-03T08:59:07.590Z,99306.56
2023-05-03T09:01:37.483Z,99298.50
2023-05-03T09:04:05.135Z,99299.91
2023-05-03T09:06:35.456Z,99306.09
2023-05-03T09:09:07.760Z,99313.13
2023-05-03T09:11:36.297Z,99306.88
2023-05-03T09:14:12.228Z,99305.31
2023-05-03T09:16:41.120Z,99281.81
2023-05-03T09:19:12.950Z,99311.31
2023-05-03T09:21:43.903Z,99315.31
2023-05-03T09:24:17.993Z,99311.47
2023-05-03T09:26:46.810Z,99313.28
2023-05-03T09:29:34.692Z,99314.13
2023-05-03T09:32:06.274Z,99308.66
2023-05-03T09:34:34.178Z,99322.53
2023-05-03T09:37:01.633Z,99315.72
2023-05-03T09:39:28.740Z,99320.59
2023-05-03T09:41:57.170Z,99321.97
2023-05-03T09:44:42.694Z,99330.19
2023-05-03T09:47:10.578Z,99336.59
2023-05-03T09:49:38.409Z,99322.53
2023-05-03T09:52:07.259Z,99333.66
2023-05-03T09:54:38.091Z,99328.97
2023-05-03T09:57:06.269Z,99336.91
2023-05-03T09:59:35.000Z,99334.00
2023-05-03T10:02:05.732Z,99338.38
2023-05-03T10:04:43.957Z,99346.38
2023-05-03T10:07:18.269Z,99335.09
2023-05-03T10:09:47.604Z,99336.41
2023-05-03T10:12:17.862Z,99329.97
2023-05-03T10:14:50.219Z,99337.38
2023-05-03T10:20:23.254Z,99340.91
2023-05-03T10:23:05.449Z,99347.94
2023-05-03T10:25:33.534Z,99338.88
2023-05-03T10:28:04.494Z,99332.06
2023-05-03T10:30:36.217Z,99324.22
2023-05-03T10:33:14.998Z,99330.28
2023-05-03T10:35:44.116Z,99316.38
2023-05-03T10:38:20.207Z,99328.13
2023-05-03T10:40:47.241Z,99325.75
2023-05-03T10:43:42.327Z,99326.41
2023-05-03T10:46:33.333Z,99321.06
2023-05-03T10:49:18.607Z,99330.25
2023-05-03T10:51:45.767Z,99318.56
2023-05-03T10:54:12.807Z,99329.09
2023-05-03T10:56:50.472Z,99319.38
2023-05-03T10:59:17.562Z,99321.63
2023-05-03T11:01:51.486Z,99320.88
2023-05-03T11:04:37.691Z,99308.97
2023-05-03T11:07:04.915Z,99318.53
2023-05-03T11:09:33.772Z,99321.81
2023-05-03T11:12:04.753Z,99321.34
2023-05-03T11:14:31.850Z,99320.84
2023-05-03T11:16:59.201Z,99331.72
2023-05-03T11:19:27.033Z,99329.41
2023-05-03T11:21:54.296Z,99324.53
2023-05-03T11:24:21.408Z,99293.25
2023-05-03T11:26:49.110Z,99302.56
2023-05-03T11:29:17.408Z,99333.34
2023-05-03T11:31:44.917Z,99329.84
2023-05-03T11:34:13.605Z,99334.72
2023-05-03T11:36:42.372Z,99326.88
2023-05-03T11:39:09.617Z,99325.59
2023-05-03T11:41:36.706Z,99318.22
2023-05-03T11:44:15.995Z,99327.59
2023-05-03T11:46:44.102Z,99324.78
2023-05-03T11:49:11.573Z,99322.75
2023-05-03T11:51:38.647Z,99324.75
2023-05-03T11:54:20.905Z,99311.03
2023-05-03T11:56:55.372Z,99321.41
2023-05-03T11:59:34.719Z,99317.88
2023-05-03T12:02:04.844Z,99318.50
2023-05-03T12:04:32.226Z,99301.97
2023-05-03T12:07:00.734Z,99318.84
2023-05-03T12:09:29.387Z,99326.41
2023-05-03T12:11:58.297Z,99305.06
2023-05-03T12:14:26.330Z,99317.94
2023-05-03T12:16:56.564Z,99313.22
2023-05-03T12:19:28.250Z,99311.13
2023-05-03T12:22:17.775Z,99314.06
2023-05-03T12:24:45.576Z,99319.34
2023-05-03T12:27:14.247Z,99317.28
2023-05-03T12:29:42.043Z,99318.03
2023-05-03T12:34:38.408Z,99307.59
2023-05-03T12:37:11.104Z,99308.28
2023-05-03T12:39:40.138Z,99172.25
2023-05-03T12:42:09.437Z,99283.34
2023-05-03T12:44:42.635Z,99291.28
2023-05-03T12:47:10.639Z,99291.84
2023-05-03T12:49:39.209Z,99294.66
2023-05-03T12:52:35.282Z,99298.09
2023-05-03T12:54:55.967Z,99290.75
2023-05-03T12:57:24.281Z,99293.34
2023-05-03T12:59:54.391Z,99298.97
2023-05-03T13:05:11.254Z,99290.50
2023-05-03T13:07:42.706Z,99287.88
2023-05-03T13:12:40.969Z,99296.38
2023-05-03T13:15:08.893Z,99293.66
2023-05-03T13:17:35.969Z,99287.19
2023-05-03T13:20:07.378Z,99284.19
2023-05-03T13:22:34.364Z,99289.78
2023-05-03T13:25:01.390Z,99288.03
2023-05-03T13:27:28.469Z,99283.56
2023-05-03T13:29:55.389Z,99282.06
2023-05-03T13:32:22.626Z,99288.69
2023-05-03T13:34:49.503Z,99290.66
2023-05-03T13:37:19.016Z,99287.59
2023-05-03T13:39:46.849Z,99290.47
2023-05-03T13:42:13.779Z,99268.56
2023-05-03T13:44:40.906Z,99285.41
2023-05-03T13:47:07.808Z,99284.72
2023-05-03T13:49:35.426Z,99286.38
2023-05-03T13:52:02.405Z,99277.50
2023-05-03T13:54:30.881Z,99281.31
2023-05-03T13:56:59.055Z,99257.84
2023-05-03T13:59:26.156Z,99275.47
2023-05-03T14:01:53.143Z,99274.88
2023-05-03T14:04:20.216Z,99269.13
2023-05-03T14:06:47.256Z,99270.91
2023-05-03T14:09:22.521Z,99270.22
2023-05-03T14:11:49.444Z,99254.59
2023-05-03T14:14:16.495Z,99264.72
2023-05-03T14:16:44.244Z,99272.09
2023-05-03T14:19:11.824Z,99272.91
2023-05-03T14:21:39.107Z,99267.84
2023-05-03T14:24:06.908Z,99232.63
2023-05-03T14:26:34.467Z,99274.97
2023-05-03T14:29:01.708Z,99273.78
2023-05-03T14:31:28.955Z,99238.94
2023-05-03T14:33:56.037Z,99272.31
2023-05-03T14:36:23.371Z,99268.38
2023-05-03T14:38:50.337Z,99273.50
2023-05-03T14:41:17.277Z,99281.31
2023-05-03T14:43:44.163Z,99274.88
2023-05-03T14:46:11.293Z,99268.94
2023-05-03T14:48:38.549Z,99276.06
2023-05-03T14:51:05.729Z,99277.72
2023-05-03T14:53:32.712Z,99277.19
2023-05-03T14:56:00.143Z,99286.75
2023-05-03T14:58:27.778Z,99264.63
2023-05-03T15:00:54.862Z,99267.00
2023-05-03T15:03:21.873Z,99275.44
2023-05-03T15:05:50.370Z,99285.56
2023-05-03T15:08:19.523Z,99279.38
2023-05-03T15:10:47.999Z,99281.44
2023-05-03T15:13:16.664Z,99277.31
2023-05-03T15:15:44.509Z,99282.81
2023-05-03T15:18:13.743Z,99270.88
2023-05-03T15:20:40.682Z,99272.78
2023-05-03T15:23:07.570Z,99274.44
2023-05-03T15:25:34.546Z,99238.88
2023-05-03T15:28:04.193Z,99271.66
2023-05-03T15:30:32.421Z,99267.47
2023-05-03T15:32:59.470Z,99261.03
2023-05-03T15:35:26.515Z,99268.53
2023-05-03T15:37:53.490Z,99267.63
2023-05-03T15:40:23.696Z,99268.94
2023-05-03T15:42:52.130Z,99237.50
2023-05-03T15:45:19.477Z,99273.53
2023-05-03T15:47:46.594Z,99260.78
2023-05-03T15:50:14.109Z,99265.44
2023-05-03T15:52:42.497Z,99273.09
2023-05-03T15:55:10.112Z,99267.66
2023-05-03T15:57:37.512Z,99263.34
2023-05-03T16:00:15.215Z,99269.63
2023-05-03T16:02:42.861Z,99265.78
2023-05-03T16:05:11.298Z,99263.00
2023-05-03T16:07:38.290Z,99258.03
2023-05-03T16:10:06.720Z,99267.25
2023-05-03T16:12:33.907Z,99266.78
2023-05-03T16:15:01.228Z,99265.34
2023-05-03T16:17:28.363Z,99260.94
2023-05-03T16:19:55.391Z,99262.19
2023-05-03T16:22:22.333Z,99271.38
2023-05-03T16:24:49.438Z,99266.78
2023-05-03T16:27:16.344Z,99134.66
2023-05-03T16:29:43.211Z,99259.47
2023-05-03T16:32:11.228Z,99255.25
2023-05-03T16:34:38.558Z,99250.88
2023-05-03T16:37:05.715Z,99223.75
2023-05-03T16:39:32.909Z,99245.94
2023-05-03T16:41:59.813Z,99267.53
2023-05-03T16:44:27.059Z,99266.31
2023-05-03T16:46:53.981Z,99266.31
2023-05-03T16:49:21.076Z,99261.72
2023-05-03T16:51:48.192Z,99262.34
2023-05-03T16:54:17.029Z,99263.81
2023-05-03T16:56:44.660Z,99267.13
2023-05-03T16:59:12.013Z,99266.72
2023-05-03T17:01:39.028Z,99264.19
2023-05-03T17:04:06.792Z,99259.00
2023-05-03T17:06:33.810Z,99233.81
2023-05-03T17:09:00.904Z,99266.91
2023-05-03T17:11:27.831Z,99262.22
2023-05-03T17:13:54.753Z,99266.97
2023-05-03T17:16:22.929Z,99269.47
2023-05-03T17:18:50.205Z,99269.03
2023-05-03T17:21:18.828Z,99258.88
2023-05-03T17:23:46.369Z,99276.69
2023-05-03T17:26:14.592Z,99281.88
2023-05-03T17:28:41.835Z,99285.22
2023-05-03T17:31:08.851Z,99285.22
2023-05-03T17:33:36.522Z,99283.72
2023-05-03T17:36:06.814Z,99287.28
2023-05-03T17:38:34.985Z,99290.97
2023-05-03T17:41:08.725Z,99287.00
2023-05-03T17:43:36.650Z,99290.97
2023-05-03T17:46:11.360Z,99297.63
2023-05-03T17:48:40.133Z,99276.00
2023-05-03T17:51:08.267Z,99291.06
2023-05-03T17:53:35.465Z,99290.38
2023-05-03T17:56:02.379Z,99274.94
2023-05-03T17:58:29.257Z,99292.38
2023-05-03T18:00:57.349Z,99290.88
2023-05-03T18:04:07.751Z,99297.53
2023-05-03T18:06:34.696Z,99296.44
2023-05-03T18:09:01.652Z,99293.88
2023-05-03T18:11:56.756Z,99262.69
2023-05-03T18:14:23.628Z,99302.03
2023-05-03T18:16:52.350Z,99247.41
2023-05-03T18:19:20.238Z,99301.91
2023-05-03T18:21:47.594Z,99300.78
2023-05-03T18:24:15.885Z,99305.91
2023-05-03T18:26:42.800Z,99309.41
2023-05-03T18:29:10.248Z,99272.66
2023-05-03T18:31:54.966Z,99311.97
2023-05-03T18:34:21.930Z,99303.91
2023-05-03T18:36:48.823Z,99307.41
2023-05-03T18:39:16.246Z,99310.97
2023-05-03T18:41:43.151Z,99307.69
2023-05-03T18:44:10.099Z,99314.41
2023-05-03T18:46:39.988Z,99324.47
2023-05-03T18:49:07.048Z,99319.16
2023-05-03T18:51:34.013Z,99302.44
2023-05-03T18:54:01.648Z,99319.91
2023-05-03T18:56:30.507Z,99316.06
2023-05-03T18:58:57.472Z,99322.38
2023-05-03T19:01:26.805Z,99324.13
2023-05-03T19:03:54.204Z,99331.47
2023-05-03T19:06:21.385Z,99331.25
2023-05-03T19:08:49.762Z,99326.25
2023-05-03T19:11:17.311Z,99334.69
2023-05-03T19:13:47.595Z,99324.97
2023-05-03T19:16:17.655Z,99298.63
2023-05-03T19:18:45.591Z,99321.38
2023-05-03T19:21:12.723Z,99316.66
2023-05-03T19:23:39.608Z,99321.94
2023-05-03T19:26:06.666Z,99314.09
2023-05-03T19:28:33.613Z,99321.66
2023-05-03T19:31:04.096Z,99324.25
2023-05-03T19:33:31.420Z,99320.09
2023-05-03T19:35:58.449Z,99321.50
2023-05-03T19:38:25.378Z,99323.06
2023-05-03T19:40:57.607Z,99318.34
2023-05-03T19:44:04.915Z,99322.78
2023-05-03T19:46:33.946Z,99315.72
2023-05-03T19:49:01.634Z,99324.50
2023-05-03T19:51:28.800Z,99327.22
2023-05-03T19:53:56.723Z,99326.88
2023-05-03T19:56:25.358Z,99323.53
2023-05-03T19:58:52.390Z,99329.94
2023-05-03T20:01:19.310Z,99329.97
2023-05-03T20:03:47.005Z,99325.94
2023-05-03T20:06:14.413Z,99329.13
2023-05-03T20:08:41.333Z,99311.41
2023-05-03T20:11:08.251Z,99326.59
2023-05-03T20:13:35.177Z,99321.84
2023-05-03T20:16:05.110Z,99317.47
2023-05-03T20:18:32.148Z,99310.59
2023-05-03T20:20:59.157Z,99314.78
2023-05-03T20:23:27.044Z,99292.19
2023-05-03T20:25:53.989Z,99310.72
2023-05-03T20:28:20.918Z,99310.69
2023-05-03T20:30:47.918Z,99278.31
2023-05-03T20:33:15.080Z,99314.47
2023-05-03T20:35:42.134Z,99320.16
2023-05-03T20:38:09.067Z,99304.66
2023-05-03T20:40:35.998Z,99325.69
2023-05-03T20:43:03.102Z,99317.63
2023-05-03T20:45:30.286Z,99320.66
2023-05-03T20:47:57.213Z,99331.19
2023-05-03T20:50:24.170Z,99289.53
2023-05-03T20:52:51.158Z,99327.28
2023-05-03T20:55:18.235Z,99327.25
2023-05-03T20:57:45.353Z,99320.53
2023-05-03T21:00:12.783Z,99321.53
2023-05-03T21:02:39.951Z,99327.25
2023-05-03T21:05:21.017Z,99324.19
2023-05-03T21:07:48.523Z,99327.78
2023-05-03T21:10:15.581Z,99287.97
2023-05-03T21:12:42.551Z,99334.72
2023-05-03T21:15:09.999Z,99331.38
2023-05-03T21:17:37.049Z,99330.72
2023-05-03T21:20:04.585Z,99316.28
2023-05-03T21:22:31.707Z,99321.25
2023-05-03T21:24:59.306Z,99302.63
2023-05-03T21:27:26.201Z,99267.09
2023-05-03T21:29:53.326Z,99318.84
2023-05-03T21:32:20.242Z,99294.16
2023-05-03T21:34:47.248Z,99317.75
2023-05-03T21:37:14.122Z,99319.44
2023-05-03T21:39:41.071Z,99308.69
2023-05-03T21:42:08.026Z,99319.44
2023-05-03T21:44:35.336Z,99310.69
2023-05-03T21:47:03.096Z,99316.63
2023-05-03T21:49:30.041Z,99313.75
2023-05-03T21:51:56.954Z,99324.19
2023-05-03T21:54:23.992Z,99311.44
2023-05-03T21:56:50.925Z,99312.28
2023-05-03T21:59:17.844Z,99298.81
2023-05-03T22:01:44.794Z,99322.72
2023-05-03T22:04:11.753Z,99314.50
2023-05-03T22:06:38.713Z,99315.50
2023-05-03T22:09:07.019Z,99312.81
2023-05-03T22:11:33.940Z,99306.06
2023-05-03T22:14:07.972Z,99311.28
2023-05-03T22:16:37.947Z,99309.59
2023-05-03T22:19:05.587Z,99314.75
2023-05-03T22:21:32.803Z,99317.97
2023-05-03T22:23:59.721Z,99320.19
2023-05-03T22:26:28.212Z,99302.53
2023-05-03T22:28:55.095Z,99310.88
2023-05-03T22:31:22.124Z,99311.72
2023-05-03T22:33:49.247Z,99317.75
2023-05-03T22:36:16.339Z,99316.63
2023-05-03T22:38:43.556Z,99311.75
2023-05-03T22:41:10.734Z,99295.97
2023-05-03T22:43:37.927Z,99307.28
2023-05-03T22:46:04.995Z,99309.97
2023-05-03T22:48:32.842Z,99303.28
2023-05-03T22:51:00.151Z,99304.97
2023-05-03T22:53:27.255Z,99309.63
2023-05-03T22:56:02.241Z,99306.28
2023-05-03T22:58:29.469Z,99302.59
2023-05-03T23:00:56.935Z,99300.06
2023-05-03T23:03:24.097Z,99305.44
2023-05-03T23:05:54.818Z,99305.22
2023-05-03T23:08:21.953Z,99296.34
2023-05-03T23:10:48.932Z,99299.19
2023-05-03T23:13:17.029Z,99301.81
2023-05-03T23:15:44.426Z,99293.06
2023-05-03T23:18:11.377Z,99290.66
2023-05-03T23:20:38.693Z,99292.25
2023-05-03T23:23:05.560Z,99291.88
2023-05-03T23:25:32.594Z,99288.25
2023-05-03T23:27:59.583Z,99288.56
2023-05-03T23:30:27.316Z,99285.28
2023-05-03T23:32:54.725Z,99289.72
2023-05-03T23:35:22.075Z,99291.94
2023-05-03T23:37:49.028Z,99294.41
2023-05-03T23:40:15.969Z,99286.25
2023-05-03T23:42:43.634Z,99281.34
2023-05-03T23:45:11.043Z,99284.19
2023-05-03T23:47:38.149Z,99280.13
2023-05-03T23:50:05.925Z,99276.66
2023-05-03T23:52:33.144Z,99283.16
2023-05-03T23:55:00.130Z,99274.19
2023-05-03T23:57:27.075Z,99282.53
2023-05-03T23:59:54.182Z,99283.31
